Time;durP1;ratioP1;P1;durP2;ratioP2;P2;SDS_P1;SDS_P2;PMS_P1;PMS_P2;Temp;Humidity;BMP_temperature;BMP_pressure;BME280_temperature;BME280_humidity;BME280_pressure;Samples;Min_cycle;Max_cycle;Signal;HPM_P1;HPM_P2
2022/04/24 00:01:50;;;;;;;27.45;12.93;;;9.80;99.90;;;;;;4971726;28;20026;-70
2022/04/24 00:04:16;;;;;;;28.60;13.13;;;9.80;99.90;;;;;;5003960;28;20101;-69
2022/04/24 00:06:46;;;;;;;27.23;12.82;;;9.80;99.90;;;;;;4991485;28;20120;-69
2022/04/24 00:09:13;;;;;;;27.58;12.27;;;9.80;99.90;;;;;;4991611;28;20102;-69
2022/04/24 00:11:39;;;;;;;29.13;12.27;;;9.80;99.90;;;;;;5007037;28;20084;-70
2022/04/24 00:14:10;;;;;;;27.60;12.25;;;9.70;99.90;;;;;;4968067;28;20428;-69
2022/04/24 00:16:37;;;;;;;25.17;12.32;;;9.60;99.90;;;;;;4952302;28;20035;-69
2022/04/24 00:19:03;;;;;;;25.65;12.05;;;9.60;99.90;;;;;;4958245;28;20468;-70
2022/04/24 00:21:29;;;;;;;24.85;11.93;;;9.60;99.90;;;;;;4965686;28;20073;-70
2022/04/24 00:23:55;;;;;;;26.92;13.13;;;9.60;99.90;;;;;;4964094;28;20034;-69
2022/04/24 00:26:21;;;;;;;26.20;12.18;;;9.60;99.90;;;;;;4969345;28;20023;-69
2022/04/24 00:28:46;;;;;;;28.20;13.10;;;9.60;99.90;;;;;;4953268;28;20031;-70
2022/04/24 00:31:12;;;;;;;31.55;12.80;;;9.60;99.90;;;;;;4967621;28;20035;-70
2022/04/24 00:33:38;;;;;;;28.58;13.40;;;9.70;99.90;;;;;;4967186;28;20030;-69
2022/04/24 00:36:04;;;;;;;25.73;12.93;;;9.70;99.90;;;;;;4968667;28;20031;-70
2022/04/24 00:38:32;;;;;;;28.52;12.98;;;9.80;99.90;;;;;;4960988;28;20718;-69
2022/04/24 00:40:58;;;;;;;27.92;13.32;;;9.80;99.90;;;;;;4970229;28;20042;-69
2022/04/24 00:43:24;;;;;;;28.35;13.80;;;9.80;99.90;;;;;;4971678;28;20455;-70
2022/04/24 00:45:59;;;;;;;25.75;12.98;;;9.80;99.90;;;;;;4967870;28;20034;-70
2022/04/24 00:48:26;;;;;;;26.77;13.00;;;9.80;99.90;;;;;;4954358;28;20418;-70
2022/04/24 00:50:52;;;;;;;26.90;12.98;;;9.80;99.90;;;;;;4954612;28;21485;-69
2022/04/24 00:53:17;;;;;;;34.00;13.52;;;9.80;99.90;;;;;;4972292;28;20034;-69
2022/04/24 00:55:44;;;;;;;30.55;13.93;;;9.70;99.90;;;;;;4967170;28;20107;-70
2022/04/24 00:58:10;;;;;;;29.40;13.88;;;9.70;99.90;;;;;;4953333;28;20490;-69
2022/04/24 01:00:38;;;;;;;26.17;12.85;;;9.80;99.90;;;;;;4955469;28;20035;-70
2022/04/24 01:03:04;;;;;;;29.13;12.95;;;9.80;99.90;;;;;;4968096;28;20269;-69
2022/04/24 01:05:30;;;;;;;29.35;13.07;;;9.80;99.90;;;;;;4972295;28;20031;-70
2022/04/24 01:07:55;;;;;;;26.23;13.02;;;9.80;99.90;;;;;;4968876;28;20041;-70
2022/04/24 01:10:21;;;;;;;23.50;12.13;;;9.80;99.90;;;;;;4971047;28;20045;-69
2022/04/24 01:12:47;;;;;;;27.17;12.82;;;9.80;99.90;;;;;;4964113;28;20150;-69
2022/04/24 01:15:13;;;;;;;26.55;12.55;;;9.80;99.90;;;;;;4982024;28;20063;-69
2022/04/24 01:17:40;;;;;;;26.42;12.75;;;9.80;99.90;;;;;;4971333;28;20023;-70
2022/04/24 01:20:06;;;;;;;28.95;12.70;;;9.80;99.90;;;;;;4964604;28;20047;-70
2022/04/24 01:22:33;;;;;;;25.70;12.65;;;9.70;99.90;;;;;;4961442;28;20173;-70
2022/04/24 01:24:58;;;;;;;24.63;12.20;;;9.70;99.90;;;;;;4955521;28;20073;-70
2022/04/24 01:27:24;;;;;;;26.85;12.73;;;9.70;99.90;;;;;;4958625;28;20022;-70
2022/04/24 01:29:50;;;;;;;27.27;12.98;;;9.70;99.90;;;;;;4961069;28;20118;-70
2022/04/24 01:32:16;;;;;;;28.02;12.73;;;9.70;99.90;;;;;;4957649;28;20027;-70
2022/04/24 01:34:42;;;;;;;29.75;13.07;;;9.70;99.90;;;;;;4970895;28;20038;-69
2022/04/24 01:37:08;;;;;;;29.85;12.90;;;9.70;99.90;;;;;;4960381;28;20621;-70
2022/04/24 01:39:33;;;;;;;25.95;12.70;;;9.70;99.90;;;;;;4959073;28;20476;-70
2022/04/24 01:41:59;;;;;;;26.08;12.77;;;9.70;99.90;;;;;;4951631;28;20027;-70
2022/04/24 01:44:24;;;;;;;27.80;12.93;;;9.70;99.90;;;;;;4965831;28;20065;-70
2022/04/24 01:46:50;;;;;;;24.98;12.82;;;9.70;99.90;;;;;;4970480;28;20147;-70
2022/04/24 01:49:16;;;;;;;24.95;12.30;;;9.60;99.90;;;;;;4970158;28;20557;-69
2022/04/24 01:51:43;;;;;;;27.08;13.43;;;9.60;99.90;;;;;;4969619;28;20026;-70
2022/04/24 01:54:09;;;;;;;25.88;13.68;;;9.70;99.90;;;;;;4958245;28;20027;-70
2022/04/24 01:56:34;;;;;;;28.95;13.60;;;9.70;99.90;;;;;;4963886;28;20035;-70
2022/04/24 01:59:00;;;;;;;28.70;13.07;;;9.70;99.90;;;;;;4958577;28;20043;-70
2022/04/24 02:01:25;;;;;;;25.95;13.43;;;9.70;99.90;;;;;;4964900;28;20039;-70
2022/04/24 02:03:51;;;;;;;28.25;13.60;;;9.60;99.90;;;;;;4967353;28;20101;-70
2022/04/24 02:06:17;;;;;;;29.33;13.23;;;9.70;99.90;;;;;;4972072;28;20062;-70
2022/04/24 02:08:43;;;;;;;24.83;12.35;;;9.60;99.90;;;;;;4965780;28;20536;-70
2022/04/24 02:11:08;;;;;;;25.85;13.15;;;9.60;99.90;;;;;;4970241;28;20193;-70
2022/04/24 02:13:34;;;;;;;28.90;12.70;;;9.60;99.90;;;;;;4958074;28;20062;-70
2022/04/24 02:16:00;;;;;;;25.50;12.27;;;9.60;99.90;;;;;;5005500;28;20599;-70
2022/04/24 02:18:26;;;;;;;32.70;13.60;;;9.70;99.90;;;;;;5007709;28;20088;-70
2022/04/24 02:20:51;;;;;;;28.25;13.18;;;9.70;99.90;;;;;;4992382;28;20034;-70
2022/04/24 02:23:17;;;;;;;28.83;13.50;;;9.60;99.90;;;;;;4995375;28;20029;-70
2022/04/24 02:25:42;;;;;;;28.50;13.48;;;9.70;99.90;;;;;;5009066;28;20117;-70
2022/04/24 02:28:08;;;;;;;29.55;14.73;;;9.80;99.90;;;;;;4991711;28;20030;-70
2022/04/24 02:30:35;;;;;;;28.90;14.07;;;9.70;99.90;;;;;;5004707;28;20053;-70
2022/04/24 02:33:01;;;;;;;31.50;14.70;;;9.50;99.90;;;;;;4985232;28;20038;-70
2022/04/24 02:35:28;;;;;;;32.65;15.18;;;9.50;99.90;;;;;;5009255;28;20113;-70
2022/04/24 02:37:54;;;;;;;32.53;15.07;;;9.50;99.90;;;;;;5000206;28;20057;-70
2022/04/24 02:40:21;;;;;;;35.80;16.02;;;9.50;99.90;;;;;;5007059;28;20060;-70
2022/04/24 02:42:49;;;;;;;34.15;16.35;;;9.50;99.90;;;;;;4998629;28;20524;-70
2022/04/24 02:45:15;;;;;;;35.08;16.30;;;9.60;99.90;;;;;;4995228;28;20044;-70
2022/04/24 02:47:41;;;;;;;34.85;16.70;;;9.70;99.90;;;;;;5005637;28;20105;-70
2022/04/24 02:50:07;;;;;;;36.83;16.60;;;9.80;99.90;;;;;;5008136;28;20554;-70
2022/04/24 02:52:43;;;;;;;33.90;15.77;;;9.80;99.90;;;;;;5004025;28;20450;-71
2022/04/24 02:55:09;;;;;;;34.90;15.98;;;9.80;99.90;;;;;;4990126;28;20026;-70
2022/04/24 02:57:36;;;;;;;37.20;17.25;;;9.90;99.90;;;;;;4992558;28;20048;-70
2022/04/24 03:00:03;;;;;;;35.95;16.88;;;9.90;99.90;;;;;;4988726;28;20034;-71
2022/04/24 03:02:29;;;;;;;37.28;17.02;;;9.90;99.90;;;;;;4985182;28;20081;-71
2022/04/24 03:04:54;;;;;;;37.13;17.58;;;9.80;99.90;;;;;;5001027;28;20029;-71
2022/04/24 03:07:20;;;;;;;33.78;16.20;;;9.80;99.90;;;;;;4989725;28;20038;-70
2022/04/24 03:09:46;;;;;;;38.47;17.00;;;9.80;99.90;;;;;;4992096;28;20057;-70
2022/04/24 03:12:11;;;;;;;35.40;16.42;;;9.80;99.90;;;;;;4995084;28;20037;-71
2022/04/24 03:14:37;;;;;;;34.08;16.17;;;9.80;99.90;;;;;;5001837;28;20517;-71
2022/04/24 03:17:03;;;;;;;37.47;17.17;;;9.70;99.90;;;;;;5001208;28;20557;-71
2022/04/24 03:19:28;;;;;;;37.63;16.88;;;9.60;99.90;;;;;;5008043;28;20382;-70
2022/04/24 03:21:54;;;;;;;37.38;16.83;;;9.50;99.90;;;;;;4990932;28;20083;-70
2022/04/24 03:24:20;;;;;;;44.80;20.05;;;9.50;99.90;;;;;;5001057;28;20034;-71
2022/04/24 03:26:46;;;;;;;38.67;18.00;;;9.50;99.90;;;;;;5007588;28;20068;-71
2022/04/24 03:29:11;;;;;;;41.75;19.80;;;9.50;99.90;;;;;;4991200;28;20026;-70
2022/04/24 03:31:37;;;;;;;41.90;18.50;;;9.60;99.90;;;;;;4989709;28;20037;-71
2022/04/24 03:34:02;;;;;;;42.05;19.30;;;9.50;99.90;;;;;;4973728;28;20430;-71
2022/04/24 03:36:28;;;;;;;43.10;19.88;;;9.50;99.90;;;;;;4971718;28;20061;-71
2022/04/24 03:38:53;;;;;;;45.78;20.50;;;9.50;99.90;;;;;;5003106;28;20022;-71
2022/04/24 03:41:19;;;;;;;45.97;19.75;;;9.50;99.90;;;;;;4978561;28;20045;-70
2022/04/24 03:43:45;;;;;;;43.08;18.80;;;9.50;99.90;;;;;;4989970;28;20030;-71
2022/04/24 03:46:10;;;;;;;47.40;20.13;;;9.50;99.90;;;;;;4988235;28;20293;-71
2022/04/24 03:48:36;;;;;;;45.47;20.67;;;9.50;99.90;;;;;;4975072;28;20022;-71
2022/04/24 03:51:02;;;;;;;40.30;19.50;;;9.50;99.90;;;;;;5005018;28;20689;-71
2022/04/24 03:53:28;;;;;;;41.38;19.65;;;9.50;99.90;;;;;;4988891;28;20030;-71
2022/04/24 03:55:53;;;;;;;43.00;20.00;;;9.50;99.90;;;;;;4983552;28;20045;-70
2022/04/24 03:58:19;;;;;;;40.22;19.02;;;9.50;99.90;;;;;;4993146;28;20022;-71
2022/04/24 04:00:45;;;;;;;41.55;19.23;;;9.50;99.90;;;;;;5006730;28;20102;-70
2022/04/24 04:03:11;;;;;;;38.55;18.17;;;9.50;99.90;;;;;;5003806;28;20034;-71
2022/04/24 04:05:37;;;;;;;42.30;19.10;;;9.50;99.90;;;;;;4999571;28;20037;-70
2022/04/24 04:08:04;;;;;;;37.45;18.85;;;9.50;99.90;;;;;;5002569;28;20061;-71
2022/04/24 04:10:30;;;;;;;42.83;19.95;;;9.50;99.90;;;;;;4991403;28;20468;-71
2022/04/24 04:12:55;;;;;;;41.95;19.67;;;9.40;99.90;;;;;;4993574;28;20030;-71
2022/04/24 04:15:21;;;;;;;41.17;19.15;;;9.50;99.90;;;;;;4988917;28;20077;-71
2022/04/24 04:17:47;;;;;;;38.05;17.85;;;9.50;99.90;;;;;;4971533;28;20045;-71
2022/04/24 04:20:13;;;;;;;37.60;17.58;;;9.50;99.90;;;;;;4981922;28;20082;-70
2022/04/24 04:22:52;;;;;;;38.60;18.00;;;9.40;99.90;;;;;;5008146;28;20053;-71
2022/04/24 04:25:19;;;;;;;39.22;17.88;;;9.40;99.90;;;;;;4992478;28;20030;-71
2022/04/24 04:27:45;;;;;;;38.97;18.80;;;9.40;99.90;;;;;;4989930;28;20026;-71
2022/04/24 04:30:11;;;;;;;42.95;19.10;;;9.40;99.90;;;;;;5002686;28;20041;-71
2022/04/24 04:32:36;;;;;;;42.65;19.42;;;9.50;99.90;;;;;;5002574;28;20041;-70
2022/04/24 04:35:04;;;;;;;39.85;18.08;;;9.50;99.90;;;;;;4999553;28;20045;-70
2022/04/24 04:37:31;;;;;;;40.95;18.75;;;9.40;99.90;;;;;;4993835;28;20025;-70
2022/04/24 04:39:57;;;;;;;38.40;18.75;;;9.40;99.90;;;;;;5007711;28;20412;-71
2022/04/24 04:42:23;;;;;;;38.92;18.20;;;9.30;99.90;;;;;;4982889;28;20034;-71
2022/04/24 04:44:49;;;;;;;37.10;17.15;;;9.30;99.90;;;;;;4994275;28;20402;-70
2022/04/24 04:47:14;;;;;;;36.55;17.13;;;9.30;99.90;;;;;;4993946;28;20435;-71
2022/04/24 04:49:40;;;;;;;36.58;17.63;;;9.30;99.90;;;;;;5001328;28;20041;-71
2022/04/24 04:52:06;;;;;;;38.60;18.85;;;9.30;99.90;;;;;;4997838;28;20030;-71
2022/04/24 04:54:32;;;;;;;41.28;18.25;;;9.20;99.90;;;;;;4991092;28;20030;-70
2022/04/24 04:56:57;;;;;;;43.35;20.20;;;9.20;99.90;;;;;;5002666;28;20025;-71
2022/04/24 04:59:23;;;;;;;39.28;18.08;;;9.30;99.90;;;;;;4998708;28;20046;-70
2022/04/24 05:01:48;;;;;;;40.53;18.65;;;9.30;99.90;;;;;;5002824;28;20037;-70
2022/04/24 05:04:14;;;;;;;42.72;19.15;;;9.30;99.90;;;;;;4982651;28;20038;-71
2022/04/24 05:06:40;;;;;;;44.38;19.70;;;9.30;99.90;;;;;;5008839;28;20108;-71
2022/04/24 05:09:05;;;;;;;46.03;20.50;;;9.30;99.90;;;;;;4983893;28;20038;-71
2022/04/24 05:11:31;;;;;;;49.33;21.75;;;9.30;99.90;;;;;;5002773;28;20152;-71
2022/04/24 05:13:57;;;;;;;45.25;21.00;;;9.20;99.90;;;;;;4994698;28;20487;-71
2022/04/24 05:16:23;;;;;;;49.15;21.05;;;9.20;99.90;;;;;;5003520;28;20025;-71
2022/04/24 05:18:48;;;;;;;50.42;22.70;;;9.20;99.90;;;;;;5003401;28;20108;-70
2022/04/24 05:21:16;;;;;;;58.38;24.00;;;9.10;99.90;;;;;;5006839;28;20037;-71
2022/04/24 05:23:45;;;;;;;61.40;24.85;;;8.90;99.90;;;;;;5011944;28;20804;-71
2022/04/24 05:26:12;;;;;;;65.05;26.63;;;8.90;99.90;;;;;;5006292;28;20015;-69
2022/04/24 05:28:38;;;;;;;69.13;27.30;;;8.80;99.90;;;;;;4999300;28;20505;-69
2022/04/24 05:31:05;;;;;;;59.50;25.45;;;8.80;99.90;;;;;;4993699;28;20030;-70
2022/04/24 05:33:30;;;;;;;24.40;9.75;;;8.80;99.90;;;;;;4997307;28;20042;-67
2022/04/24 05:35:56;;;;;;;14.77;6.35;;;8.30;99.90;;;;;;5006519;28;20033;-65
2022/04/24 05:38:22;;;;;;;14.10;5.18;;;7.90;99.90;;;;;;5028033;28;20676;-66
2022/04/24 05:40:47;;;;;;;10.43;3.83;;;7.80;99.90;;;;;;4992350;28;20044;-67
2022/04/24 05:43:13;;;;;;;9.30;3.67;;;7.70;99.90;;;;;;4994980;28;20030;-68
2022/04/24 05:45:41;;;;;;;3.97;1.85;;;7.70;99.90;;;;;;5008817;28;20432;-68
2022/04/24 05:48:07;;;;;;;3.78;1.60;;;7.60;99.90;;;;;;5010881;28;20040;-69
2022/04/24 05:50:33;;;;;;;3.15;1.23;;;7.60;99.90;;;;;;5009229;28;20109;-68
2022/04/24 05:52:59;;;;;;;5.35;1.35;;;7.50;99.90;;;;;;5008042;28;20439;-70
2022/04/24 05:55:25;;;;;;;4.88;1.45;;;7.50;99.90;;;;;;4993039;28;20030;-69
2022/04/24 05:57:52;;;;;;;2.83;1.00;;;7.50;99.90;;;;;;4985745;28;20463;-69
2022/04/24 06:00:19;;;;;;;4.15;0.77;;;7.50;99.90;;;;;;5002006;28;20050;-70
2022/04/24 06:02:45;;;;;;;2.33;1.20;;;7.50;99.90;;;;;;5009171;28;20033;-69
2022/04/24 06:05:11;;;;;;;2.42;1.00;;;7.50;99.90;;;;;;4993373;28;20533;-70
2022/04/24 06:07:37;;;;;;;3.53;0.80;;;7.50;99.90;;;;;;5005417;28;20066;-69
2022/04/24 06:10:04;;;;;;;1.90;0.73;;;7.50;99.90;;;;;;5006251;28;20064;-69
2022/04/24 06:12:30;;;;;;;1.52;0.60;;;7.50;99.90;;;;;;4987665;28;20080;-70
2022/04/24 06:15:05;;;;;;;2.35;0.65;;;7.40;99.90;;;;;;5026797;28;20053;-70
2022/04/24 06:17:31;;;;;;;2.97;0.60;;;7.40;99.90;;;;;;4994362;28;20089;-70
2022/04/24 06:19:57;;;;;;;4.57;0.90;;;7.40;99.90;;;;;;5009777;28;20038;-69
2022/04/24 06:22:22;;;;;;;1.85;0.88;;;7.50;99.90;;;;;;5021278;28;20112;-69
2022/04/24 06:24:50;;;;;;;2.38;0.63;;;7.40;99.90;;;;;;5005247;28;20038;-70
2022/04/24 06:27:16;;;;;;;2.65;1.05;;;7.40;99.90;;;;;;4986455;28;20049;-70
2022/04/24 06:29:42;;;;;;;4.90;1.20;;;7.40;99.90;;;;;;4991476;28;20505;-70
2022/04/24 06:32:08;;;;;;;3.20;1.00;;;7.40;99.90;;;;;;5003801;28;20034;-70
2022/04/24 06:34:34;;;;;;;3.13;1.02;;;7.40;99.90;;;;;;5006424;28;20056;-70
2022/04/24 06:37:00;;;;;;;7.05;1.00;;;7.40;99.90;;;;;;4988188;28;20416;-70
2022/04/24 06:39:26;;;;;;;2.35;1.00;;;7.40;99.90;;;;;;5003257;28;20069;-70
2022/04/24 06:41:51;;;;;;;3.35;1.20;;;7.40;99.90;;;;;;4999517;28;20029;-70
2022/04/24 06:44:17;;;;;;;3.55;1.00;;;7.40;99.90;;;;;;5000090;28;20451;-70
2022/04/24 06:46:46;;;;;;;1.85;0.82;;;7.40;99.90;;;;;;5001459;28;20037;-70
2022/04/24 06:49:12;;;;;;;2.83;1.27;;;7.40;99.90;;;;;;5001697;28;20124;-70
2022/04/24 06:51:38;;;;;;;2.00;0.73;;;7.50;99.90;;;;;;5004028;28;20061;-70
2022/04/24 06:54:03;;;;;;;2.42;1.33;;;7.50;99.90;;;;;;5010556;28;20429;-70
2022/04/24 06:56:29;;;;;;;2.38;0.80;;;7.50;99.90;;;;;;4975837;28;20030;-70
2022/04/24 06:58:55;;;;;;;1.88;0.75;;;7.40;99.90;;;;;;4992475;28;20065;-70
2022/04/24 07:01:22;;;;;;;1.95;0.85;;;7.40;99.90;;;;;;4980872;28;20042;-70
2022/04/24 07:03:48;;;;;;;3.67;1.20;;;7.40;99.90;;;;;;4992441;28;20148;-70
2022/04/24 07:06:14;;;;;;;5.43;1.30;;;7.40;99.90;;;;;;5001849;28;20109;-71
2022/04/24 07:08:40;;;;;;;3.17;1.10;;;7.40;99.90;;;;;;5000016;28;20030;-70
2022/04/24 07:11:06;;;;;;;2.20;0.90;;;7.40;99.90;;;;;;4998228;28;20442;-70
2022/04/24 07:13:32;;;;;;;2.15;0.80;;;7.30;99.90;;;;;;4983787;28;20034;-70
2022/04/24 07:15:58;;;;;;;2.63;1.00;;;7.30;99.90;;;;;;4996689;28;20136;-69
2022/04/24 07:18:24;;;;;;;1.77;0.60;;;7.30;99.90;;;;;;4990346;28;20125;-70
2022/04/24 07:20:50;;;;;;;3.35;0.80;;;7.30;99.90;;;;;;5005749;28;20038;-70
2022/04/24 07:23:16;;;;;;;2.00;0.80;;;7.30;99.90;;;;;;5008962;28;20478;-71
2022/04/24 07:25:46;;;;;;;1.20;0.47;;;7.30;99.90;;;;;;4981049;28;20054;-69
2022/04/24 07:28:13;;;;;;;1.35;0.50;;;7.30;99.90;;;;;;4983450;28;20337;-70
2022/04/24 07:30:39;;;;;;;1.50;0.50;;;7.30;99.90;;;;;;5006483;28;20379;-70
2022/04/24 07:33:05;;;;;;;1.77;0.77;;;7.30;99.90;;;;;;5009874;28;20038;-70
2022/04/24 07:35:33;;;;;;;1.08;0.57;;;7.40;99.90;;;;;;4972556;28;20034;-69
2022/04/24 07:37:59;;;;;;;2.55;0.60;;;7.40;99.90;;;;;;5007463;28;20382;-70
2022/04/24 07:40:28;;;;;;;1.27;0.52;;;7.30;99.90;;;;;;4990218;28;20044;-70
2022/04/24 07:43:07;;;;;;;1.88;0.70;;;7.30;99.90;;;;;;5007820;28;20126;-69
2022/04/24 07:45:53;;;;;;;0.88;0.40;;;7.30;99.90;;;;;;5001616;28;20046;-69
2022/04/24 07:48:19;;;;;;;2.65;0.45;;;7.30;99.90;;;;;;5003726;28;20040;-70
2022/04/24 07:50:47;;;;;;;0.88;0.40;;;7.40;99.90;;;;;;4986328;28;20481;-69
2022/04/24 07:53:13;;;;;;;1.30;0.50;;;7.40;99.90;;;;;;5001208;28;20145;-70
2022/04/24 07:55:57;;;;;;;1.35;0.60;;;7.30;99.90;;;;;;4994505;28;20129;-70
2022/04/24 07:58:23;;;;;;;1.35;0.40;;;7.30;99.90;;;;;;4979101;28;20041;-70
2022/04/24 08:00:48;;;;;;;0.93;0.25;;;7.30;99.90;;;;;;4996882;28;20124;-70
2022/04/24 08:03:15;;;;;;;1.40;0.43;;;7.30;99.90;;;;;;5003052;28;20030;-71
2022/04/24 08:05:48;;;;;;;1.33;0.40;;;7.30;99.90;;;;;;4989743;28;20056;-69
2022/04/24 08:08:15;;;;;;;1.50;0.32;;;7.30;99.90;;;;;;4971232;28;20057;-71
2022/04/24 08:10:44;;;;;;;0.68;0.28;;;7.20;99.90;;;;;;4997183;28;20109;-70
2022/04/24 08:13:10;;;;;;;0.63;0.20;;;7.20;99.90;;;;;;4988720;28;20038;-69
2022/04/24 08:15:37;;;;;;;2.05;0.47;;;7.10;99.90;;;;;;4988588;28;20114;-70
2022/04/24 08:18:05;;;;;;;0.77;0.17;;;7.10;99.90;;;;;;4994213;28;20034;-69
2022/04/24 08:20:32;;;;;;;0.50;0.30;;;7.00;99.90;;;;;;4988606;28;20145;-69
2022/04/24 08:22:59;;;;;;;3.05;0.20;;;7.10;99.90;;;;;;4987154;28;20026;-70
2022/04/24 08:25:26;;;;;;;4.18;0.28;;;7.00;99.90;;;;;;4990593;28;20061;-70
2022/04/24 08:27:54;;;;;;;2.47;0.30;;;7.00;99.90;;;;;;4999971;28;21163;-70
2022/04/24 08:30:21;;;;;;;1.33;0.20;;;7.00;99.90;;;;;;4995877;28;20030;-70
2022/04/24 08:32:48;;;;;;;0.88;0.40;;;7.00;99.90;;;;;;4990302;28;20034;-70
2022/04/24 08:35:17;;;;;;;1.35;0.28;;;7.10;99.90;;;;;;5000587;28;20067;-70
2022/04/24 08:37:44;;;;;;;1.13;0.63;;;7.10;99.90;;;;;;4990153;28;20027;-70
2022/04/24 08:40:12;;;;;;;0.80;0.30;;;7.10;99.90;;;;;;4990340;28;20093;-70
2022/04/24 08:42:38;;;;;;;0.85;0.40;;;7.20;99.90;;;;;;4999100;28;20042;-69
2022/04/24 08:45:05;;;;;;;1.08;0.30;;;7.10;99.90;;;;;;4989322;28;20043;-69
2022/04/24 08:47:31;;;;;;;2.35;0.30;;;7.20;99.90;;;;;;4997942;28;20038;-70
2022/04/24 08:49:59;;;;;;;0.60;0.28;;;7.10;99.90;;;;;;4986148;28;20065;-69
2022/04/24 08:52:27;;;;;;;1.20;0.20;;;7.10;99.90;;;;;;4988794;28;20100;-69
2022/04/24 08:54:53;;;;;;;1.10;0.45;;;7.20;99.90;;;;;;4991539;28;20060;-70
2022/04/24 08:57:21;;;;;;;1.10;0.40;;;7.20;99.90;;;;;;5006485;28;20022;-69
2022/04/24 08:59:47;;;;;;;1.13;0.60;;;7.30;99.90;;;;;;4984687;28;20567;-69
2022/04/24 09:02:14;;;;;;;0.60;0.22;;;7.30;99.90;;;;;;4989861;28;20198;-70
2022/04/24 09:04:40;;;;;;;0.95;0.40;;;7.30;99.90;;;;;;4998436;28;20030;-69
2022/04/24 09:07:08;;;;;;;0.63;0.22;;;7.40;99.90;;;;;;4995109;28;20031;-69
2022/04/24 09:09:42;;;;;;;1.33;0.38;;;7.40;99.90;;;;;;4993397;28;20058;-69
2022/04/24 09:12:26;;;;;;;0.93;0.30;;;7.40;99.90;;;;;;4976691;28;20387;-69
2022/04/24 09:14:54;;;;;;;0.98;0.35;;;7.40;99.90;;;;;;4998467;28;20054;-74
2022/04/24 09:17:26;;;;;;;2.15;0.32;;;7.50;99.90;;;;;;4990311;28;20033;-70
2022/04/24 09:19:54;;;;;;;0.60;0.30;;;7.50;99.90;;;;;;4983621;28;20038;-70
2022/04/24 09:22:22;;;;;;;0.85;0.35;;;7.50;99.90;;;;;;4981022;28;20031;-71
2022/04/24 09:24:59;;;;;;;0.80;0.40;;;7.60;99.90;;;;;;5003932;28;20113;-70
2022/04/24 09:27:34;;;;;;;3.63;0.50;;;7.60;99.90;;;;;;4973617;28;20033;-70
2022/04/24 09:30:08;;;;;;;1.10;0.50;;;7.60;99.90;;;;;;5007801;28;20049;-70
2022/04/24 09:32:55;;;;;;;0.60;0.30;;;7.60;99.90;;;;;;4978996;28;20077;-70
2022/04/24 09:35:26;;;;;;;0.90;0.50;;;7.60;99.90;;;;;;5005566;28;20033;-71
2022/04/24 09:37:52;;;;;;;0.70;0.40;;;7.70;99.90;;;;;;4994586;28;20030;-71
2022/04/24 09:40:19;;;;;;;0.60;0.20;;;7.80;99.90;;;;;;4991983;28;20045;-72
2022/04/24 09:42:54;;;;;;;1.05;0.57;;;7.80;99.90;;;;;;5005844;28;20256;-71
2022/04/24 09:45:26;;;;;;;0.93;0.40;;;7.80;99.90;;;;;;5005045;28;20073;-71
2022/04/24 09:47:59;;;;;;;1.15;0.40;;;7.80;99.90;;;;;;4995143;28;20034;-70
2022/04/24 09:50:29;;;;;;;3.33;0.50;;;7.80;99.90;;;;;;5005157;28;20022;-71
2022/04/24 09:52:57;;;;;;;1.65;0.70;;;7.70;99.90;;;;;;4974397;28;20027;-71
2022/04/24 09:55:27;;;;;;;2.70;0.60;;;7.80;99.90;;;;;;5002999;28;20041;-70
2022/04/24 09:57:54;;;;;;;1.10;0.40;;;7.70;99.90;;;;;;4998941;28;20026;-70
2022/04/24 10:00:21;;;;;;;1.95;0.60;;;7.80;99.90;;;;;;5007668;28;20033;-70
2022/04/24 10:02:50;;;;;;;0.95;0.40;;;7.80;99.90;;;;;;5008497;28;20057;-70
2022/04/24 10:05:17;;;;;;;1.02;0.47;;;7.90;99.90;;;;;;5005390;28;20034;-71
2022/04/24 10:07:44;;;;;;;1.10;0.60;;;7.80;99.90;;;;;;5003293;28;20027;-72
2022/04/24 10:10:11;;;;;;;0.60;0.43;;;7.80;99.90;;;;;;4990945;28;20117;-70
2022/04/24 10:12:37;;;;;;;1.00;0.57;;;7.80;99.90;;;;;;4989668;28;20087;-71
2022/04/24 10:15:10;;;;;;;1.25;0.75;;;7.90;99.90;;;;;;4993507;28;20056;-71
2022/04/24 10:17:52;;;;;;;1.85;0.98;;;8.10;99.90;;;;;;4990062;28;20037;-71
2022/04/24 10:20:44;;;;;;;1.60;0.55;;;8.00;99.90;;;;;;4994143;28;20044;-70
2022/04/24 10:23:10;;;;;;;0.75;0.50;;;8.10;99.90;;;;;;4981507;28;20128;-70
2022/04/24 10:25:38;;;;;;;1.05;0.45;;;8.20;99.90;;;;;;4979982;28;20034;-71
2022/04/24 10:28:15;;;;;;;1.25;0.50;;;8.10;99.90;;;;;;4994189;28;20061;-70
2022/04/24 10:30:42;;;;;;;0.68;0.30;;;8.20;99.90;;;;;;4991719;28;20672;-70
2022/04/24 10:33:18;;;;;;;0.60;0.40;;;8.20;99.90;;;;;;5001755;28;20055;-70
2022/04/24 10:35:51;;;;;;;1.52;0.40;;;8.30;99.90;;;;;;4990826;28;20049;-70
2022/04/24 10:38:18;;;;;;;0.95;0.38;;;8.30;99.90;;;;;;4992220;28;20081;-70
2022/04/24 10:41:01;;;;;;;1.52;0.35;;;8.30;99.90;;;;;;4989567;28;20073;-70
2022/04/24 10:43:41;;;;;;;0.88;0.30;;;8.40;99.90;;;;;;5006043;28;20381;-70
2022/04/24 10:46:20;;;;;;;1.53;0.50;;;8.40;99.90;;;;;;4994933;28;20037;-70
2022/04/24 10:48:46;;;;;;;0.88;0.30;;;8.50;99.90;;;;;;5007700;28;20034;-70
2022/04/24 10:51:13;;;;;;;0.85;0.50;;;8.60;99.90;;;;;;5009178;28;20133;-70
2022/04/24 10:53:55;;;;;;;0.88;0.30;;;8.70;99.90;;;;;;4999092;28;20030;-70
2022/04/24 10:56:20;;;;;;;0.75;0.30;;;8.70;99.90;;;;;;5005107;28;20084;-69
2022/04/24 10:58:49;;;;;;;0.40;0.20;;;8.70;99.90;;;;;;4994574;28;20494;-68
2022/04/24 11:01:15;;;;;;;0.80;0.60;;;8.80;99.90;;;;;;4994371;28;20445;-70
2022/04/24 11:03:43;;;;;;;0.85;0.32;;;8.70;99.90;;;;;;5005415;28;20038;-70
2022/04/24 11:06:19;;;;;;;2.28;0.40;;;8.80;99.90;;;;;;4994407;28;20029;-70
2022/04/24 11:08:49;;;;;;;1.08;0.40;;;9.00;99.90;;;;;;4987221;28;20820;-69
2022/04/24 11:11:16;;;;;;;0.82;0.20;;;8.80;99.90;;;;;;5008828;28;20029;-70
2022/04/24 11:13:42;;;;;;;0.30;0.20;;;8.60;99.90;;;;;;4997039;28;20157;-69
2022/04/24 11:16:08;;;;;;;0.88;0.20;;;8.70;99.90;;;;;;4991144;28;20487;-70
2022/04/24 11:18:36;;;;;;;0.80;0.40;;;8.70;99.90;;;;;;5001276;28;20395;-69
2022/04/24 11:21:07;;;;;;;0.90;0.30;;;8.80;99.90;;;;;;5003891;28;20041;-69
2022/04/24 11:23:38;;;;;;;0.57;0.10;;;8.80;99.90;;;;;;5009577;28;20804;-70
2022/04/24 11:26:08;;;;;;;2.08;0.32;;;8.70;99.90;;;;;;4995969;28;20592;-68
2022/04/24 11:28:49;;;;;;;1.55;0.20;;;8.60;99.90;;;;;;4992587;28;20056;-70
2022/04/24 11:31:16;;;;;;;0.30;0.10;;;8.50;99.90;;;;;;4981964;28;20041;-70
2022/04/24 11:33:57;;;;;;;0.57;0.10;;;8.70;99.90;;;;;;5001718;28;20129;-68
2022/04/24 11:36:25;;;;;;;0.90;0.20;;;8.90;99.90;;;;;;5008600;28;20038;-70
2022/04/24 11:38:52;;;;;;;0.30;0.10;;;8.90;99.90;;;;;;5000919;28;20113;-70
2022/04/24 11:41:20;;;;;;;0.30;0.10;;;8.80;99.90;;;;;;4988265;28;20041;-69
2022/04/24 11:43:46;;;;;;;0.55;0.10;;;8.80;99.90;;;;;;5005097;28;20051;-68
2022/04/24 11:51:44;;;;;;;0.40;0.20;;;9.00;99.90;;;;;;5005788;28;20036;-69
2022/04/24 11:54:11;;;;;;;1.13;0.20;;;9.10;99.90;;;;;;4990296;28;20113;-69
2022/04/24 11:56:37;;;;;;;0.35;0.15;;;9.10;99.90;;;;;;5008596;28;20076;-67
2022/04/24 11:59:20;;;;;;;0.25;0.10;;;9.20;99.90;;;;;;5007112;28;20454;-68
2022/04/24 12:01:55;;;;;;;0.32;0.10;;;9.10;99.90;;;;;;5009740;28;20054;-70
2022/04/24 12:04:24;;;;;;;0.40;0.20;;;9.00;99.90;;;;;;5008115;28;20475;-68
2022/04/24 12:07:00;;;;;;;0.40;0.20;;;8.80;99.90;;;;;;5007987;28;20168;-68
2022/04/24 12:09:25;;;;;;;0.90;0.28;;;8.80;99.90;;;;;;5008626;28;20022;-69
2022/04/24 12:12:01;;;;;;;0.70;0.28;;;8.80;99.90;;;;;;4999360;28;20132;-68
2022/04/24 12:14:27;;;;;;;0.40;0.22;;;8.70;99.90;;;;;;5021156;28;20054;-69
2022/04/24 12:16:56;;;;;;;0.63;0.25;;;8.70;99.90;;;;;;4992337;28;20027;-70
2022/04/24 12:19:22;;;;;;;0.43;0.20;;;8.70;99.90;;;;;;4999872;28;20038;-68
2022/04/24 12:21:50;;;;;;;1.17;0.50;;;8.70;99.90;;;;;;5002413;28;20041;-68
2022/04/24 12:24:16;;;;;;;0.80;0.20;;;8.70;99.90;;;;;;5015350;28;20037;-69
2022/04/24 12:26:50;;;;;;;1.80;0.38;;;8.70;99.90;;;;;;5007714;28;20038;-69
2022/04/24 12:29:16;;;;;;;1.05;0.50;;;8.80;99.90;;;;;;4989093;28;20030;-68
2022/04/24 12:31:43;;;;;;;1.80;0.40;;;8.80;99.90;;;;;;4993840;28;20042;-69
2022/04/24 12:34:09;;;;;;;0.32;0.20;;;8.80;99.90;;;;;;5021642;28;20029;-69
2022/04/24 12:36:35;;;;;;;0.20;0.20;;;8.80;99.90;;;;;;5022003;28;20034;-69
2022/04/24 12:39:06;;;;;;;0.90;0.20;;;8.90;99.90;;;;;;5001771;28;20038;-69
2022/04/24 12:41:41;;;;;;;2.80;0.55;;;8.80;99.90;;;;;;4992694;28;20114;-68
2022/04/24 12:44:07;;;;;;;0.70;0.20;;;8.80;99.90;;;;;;5006982;28;20044;-68
2022/04/24 12:46:34;;;;;;;0.75;0.30;;;8.80;99.90;;;;;;5004460;28;20119;-69
2022/04/24 12:49:02;;;;;;;1.80;0.20;;;8.80;99.90;;;;;;4986728;28;20038;-68
2022/04/24 12:51:28;;;;;;;0.40;0.30;;;8.80;99.90;;;;;;5003781;28;20950;-68
2022/04/24 12:53:56;;;;;;;0.73;0.40;;;8.80;99.90;;;;;;5001956;28;20030;-69
2022/04/24 12:56:23;;;;;;;0.47;0.30;;;8.80;99.90;;;;;;5005710;28;20026;-68